createdAt,value
2018-05-18T00:00:45.338Z,29.25
2018-05-18T00:03:55.629Z,19.95
2018-05-18T00:07:06.180Z,21.30
2018-05-18T00:10:15.673Z,23.38
2018-05-18T00:13:26.838Z,26.95
2018-05-18T00:16:38.110Z,19.65
2018-05-18T00:19:48.886Z,18.27
2018-05-18T00:22:59.539Z,24.73
2018-05-18T00:26:10.160Z,22.70
2018-05-18T00:29:20.577Z,15.65
2018-05-18T00:32:30.804Z,26.95
2018-05-18T00:35:40.832Z,18.23
2018-05-18T00:38:50.917Z,15.10
2018-05-18T00:42:01.653Z,22.45
2018-05-18T00:45:11.673Z,21.08
2018-05-18T00:48:21.448Z,16.70
2018-05-18T00:51:31.466Z,22.00
2018-05-18T00:54:41.483Z,17.33
2018-05-18T00:57:52.029Z,17.60
2018-05-18T01:01:02.374Z,21.60
2018-05-18T01:04:12.938Z,14.95
2018-05-18T01:07:24.204Z,29.65
2018-05-18T01:10:35.224Z,26.77
2018-05-18T01:13:46.185Z,30.85
2018-05-18T01:16:56.476Z,30.83
2018-05-18T01:20:06.419Z,21.23
2018-05-18T01:23:16.453Z,31.55
2018-05-18T01:26:27.345Z,29.12
2018-05-18T01:29:37.635Z,29.30
2018-05-18T01:32:48.525Z,33.67
2018-05-18T01:35:59.733Z,38.78
2018-05-18T01:39:10.332Z,31.42
2018-05-18T01:42:20.624Z,22.42
2018-05-18T01:45:31.408Z,37.35
2018-05-18T01:48:42.837Z,25.60
2018-05-18T01:51:53.589Z,25.33
2018-05-18T01:55:03.783Z,24.65
2018-05-18T01:58:13.603Z,23.98
2018-05-18T02:01:24.395Z,32.47
2018-05-18T02:04:34.769Z,27.42
2018-05-18T02:07:45.418Z,24.50
2018-05-18T02:10:55.299Z,30.12
2018-05-18T02:14:05.420Z,24.55
2018-05-18T02:17:15.263Z,27.52
2018-05-18T02:20:25.180Z,29.73
2018-05-18T02:23:35.417Z,27.58
2018-05-18T02:26:47.260Z,32.95
2018-05-18T02:29:57.041Z,23.00
2018-05-18T02:33:07.925Z,34.00
2018-05-18T02:36:18.264Z,38.58
2018-05-18T02:39:28.133Z,29.40
2018-05-18T02:42:38.110Z,37.65
2018-05-18T02:45:48.245Z,43.58
2018-05-18T02:48:58.082Z,26.15
2018-05-18T02:52:08.382Z,34.63
2018-05-18T02:55:18.740Z,29.27
2018-05-18T02:58:29.392Z,38.92
2018-05-18T03:01:39.335Z,24.90
2018-05-18T03:04:49.589Z,23.77
2018-05-18T03:08:00.042Z,31.25
2018-05-18T03:11:10.168Z,29.20
2018-05-18T03:14:20.003Z,39.60
2018-05-18T03:17:30.038Z,20.42
2018-05-18T03:20:40.829Z,25.48
2018-05-18T03:23:50.959Z,34.28
2018-05-18T03:27:01.661Z,24.87
2018-05-18T03:30:11.865Z,30.75
2018-05-18T03:33:21.789Z,44.28
2018-05-18T03:36:31.657Z,31.50
2018-05-18T03:39:42.535Z,26.85
2018-05-18T03:42:52.819Z,24.52
2018-05-18T03:46:02.863Z,31.90
2018-05-18T03:49:12.694Z,25.98
2018-05-18T03:52:22.556Z,28.80
2018-05-18T03:55:32.937Z,30.08
2018-05-18T03:58:42.902Z,30.48
2018-05-18T04:02:04.708Z,47.10
2018-05-18T04:05:26.192Z,27.15
2018-05-18T04:08:53.151Z,31.70
2018-05-18T04:12:03.086Z,19.62
2018-05-18T04:15:14.669Z,38.45
2018-05-18T04:18:25.436Z,30.60
2018-05-18T04:21:35.335Z,25.15
2018-05-18T04:24:45.243Z,25.77
2018-05-18T04:27:55.293Z,25.65
2018-05-18T04:31:05.792Z,31.55
2018-05-18T04:34:16.982Z,36.60
2018-05-18T04:37:27.946Z,23.75
2018-05-18T04:40:38.417Z,20.37
2018-05-18T04:43:48.358Z,23.62
2018-05-18T04:46:58.245Z,19.33
2018-05-18T04:50:08.211Z,24.40
2018-05-18T04:53:18.503Z,24.95
2018-05-18T04:56:29.262Z,21.55
2018-05-18T04:59:40.265Z,22.58
2018-05-18T05:02:50.027Z,28.40
2018-05-18T05:06:01.363Z,18.33
2018-05-18T05:09:11.250Z,18.30
2018-05-18T05:12:22.469Z,32.03
2018-05-18T05:15:32.400Z,20.58
2018-05-18T05:18:43.088Z,15.13
2018-05-18T05:21:53.839Z,27.02
2018-05-18T05:25:04.525Z,25.15
2018-05-18T05:28:14.480Z,14.68
2018-05-18T05:31:25.359Z,17.00
2018-05-18T05:34:35.225Z,21.55
2018-05-18T05:37:45.828Z,20.85
2018-05-18T05:40:56.147Z,22.58
2018-05-18T05:44:06.057Z,20.17
2018-05-18T05:47:15.793Z,15.52
2018-05-18T05:50:25.952Z,30.83
2018-05-18T05:53:35.778Z,17.98
2018-05-18T05:56:46.531Z,26.00
2018-05-18T05:59:56.599Z,21.67
2018-05-18T06:03:06.657Z,23.45
2018-05-18T06:06:18.372Z,17.30
2018-05-18T06:09:28.498Z,23.40
2018-05-18T06:12:38.673Z,17.87
2018-05-18T06:15:49.263Z,22.15
2018-05-18T06:18:59.056Z,15.90
2018-05-18T06:22:08.926Z,16.85
2018-05-18T06:25:18.762Z,28.05
2018-05-18T06:28:29.345Z,15.98
2018-05-18T06:31:39.468Z,21.08
2018-05-18T06:34:49.387Z,21.55
2018-05-18T06:37:59.246Z,19.12
2018-05-18T06:41:09.376Z,17.12
2018-05-18T06:44:20.259Z,16.98
2018-05-18T06:47:30.063Z,15.82
2018-05-18T06:50:40.024Z,21.37
2018-05-18T06:53:50.554Z,21.87
2018-05-18T06:57:00.817Z,14.93
2018-05-18T07:00:10.635Z,15.35
2018-05-18T07:03:20.666Z,15.60
2018-05-18T07:06:31.223Z,18.02
2018-05-18T07:09:41.343Z,12.75
2018-05-18T07:12:51.325Z,17.02
2018-05-18T07:19:23.667Z,16.60
2018-05-18T07:22:33.581Z,20.15
2018-05-18T07:25:43.790Z,21.98
2018-05-18T07:28:53.681Z,22.25
2018-05-18T07:32:03.468Z,22.17
2018-05-18T07:35:13.607Z,15.18
2018-05-18T07:38:23.502Z,19.65
2018-05-18T07:41:33.439Z,14.23
2018-05-18T07:44:43.643Z,25.27
2018-05-18T07:47:54.886Z,15.10
2018-05-18T07:51:05.173Z,26.58
2018-05-18T07:54:14.957Z,22.33
2018-05-18T07:57:24.778Z,16.50
2018-05-18T08:00:34.567Z,16.40
2018-05-18T08:03:45.328Z,23.80
2018-05-18T08:06:55.601Z,18.00
2018-05-18T08:10:06.109Z,21.67
2018-05-18T08:13:16.023Z,38.58
2018-05-18T08:16:26.939Z,17.77
2018-05-18T08:19:37.441Z,20.27
2018-05-18T08:22:48.093Z,26.00
2018-05-18T08:25:59.024Z,17.73
2018-05-18T08:29:21.013Z,17.85
2018-05-18T08:32:31.488Z,20.30
2018-05-18T08:35:42.559Z,14.23
2018-05-18T08:38:52.719Z,15.10
2018-05-18T08:42:02.895Z,20.55
2018-05-18T08:45:13.433Z,14.07
2018-05-18T08:48:23.465Z,19.12
2018-05-18T08:51:33.724Z,20.73
2018-05-18T08:54:43.546Z,17.90
2018-05-18T08:57:53.254Z,18.08
2018-05-18T09:01:03.168Z,22.77
2018-05-18T09:04:13.208Z,19.52
2018-05-18T09:07:23.625Z,18.25
2018-05-18T09:10:34.127Z,18.35
2018-05-18T09:13:44.082Z,21.90
2018-05-18T09:16:54.013Z,24.35
2018-05-18T09:20:03.764Z,19.67
2018-05-18T09:23:13.728Z,27.55
2018-05-18T09:26:24.514Z,18.85
2018-05-18T09:29:34.777Z,14.18
2018-05-18T09:32:44.809Z,30.48
2018-05-18T09:35:54.932Z,22.98
2018-05-18T09:39:03.988Z,16.60
2018-05-18T09:42:14.522Z,14.43
2018-05-18T09:45:24.592Z,24.67
2018-05-18T09:48:34.752Z,16.55
2018-05-18T09:51:44.857Z,18.37
2018-05-18T09:54:55.090Z,13.55
2018-05-18T09:58:05.370Z,19.62
2018-05-18T10:01:15.389Z,17.42
2018-05-18T10:04:26.783Z,18.08
2018-05-18T10:07:38.227Z,13.90
2018-05-18T10:10:48.905Z,17.25
2018-05-18T10:13:58.643Z,26.02
2018-05-18T10:17:08.610Z,19.35
2018-05-18T10:20:18.565Z,16.85
2018-05-18T10:23:28.471Z,15.70
2018-05-18T10:26:38.463Z,23.50
2018-05-18T10:29:48.406Z,12.63
2018-05-18T10:32:58.317Z,18.25
2018-05-18T10:36:09.923Z,14.60
2018-05-18T10:39:20.390Z,12.40
2018-05-18T10:42:30.454Z,20.65
2018-05-18T10:45:41.097Z,16.98
2018-05-18T10:48:51.393Z,12.85
2018-05-18T10:52:01.421Z,15.20
2018-05-18T10:55:11.631Z,23.95
2018-05-18T10:58:21.769Z,13.77
2018-05-18T11:01:31.845Z,15.60
2018-05-18T11:04:42.277Z,15.15
2018-05-18T11:07:52.499Z,21.33
2018-05-18T11:11:03.178Z,16.23
2018-05-18T11:14:13.587Z,14.63
2018-05-18T11:17:24.370Z,17.92
2018-05-18T11:20:34.708Z,14.73
2018-05-18T11:23:44.601Z,13.98
2018-05-18T11:26:54.662Z,15.50
2018-05-18T11:30:03.855Z,12.45
2018-05-18T11:33:14.359Z,12.68
2018-05-18T11:36:26.339Z,12.70
2018-05-18T11:39:36.888Z,22.27
2018-05-18T11:42:46.782Z,21.00
2018-05-18T11:45:57.411Z,14.85
2018-05-18T11:49:07.545Z,22.20
2018-05-18T11:52:17.342Z,10.65
2018-05-18T11:55:27.271Z,18.55
2018-05-18T11:58:38.093Z,20.15
2018-05-18T12:01:48.472Z,17.48
2018-05-18T12:04:59.224Z,17.20
2018-05-18T12:08:11.071Z,18.83
2018-05-18T12:11:21.148Z,18.17
2018-05-18T12:14:31.081Z,13.25
2018-05-18T12:17:41.419Z,15.95
2018-05-18T12:20:52.466Z,19.73
2018-05-18T12:24:02.694Z,13.70
2018-05-18T12:27:12.820Z,17.33
2018-05-18T12:30:22.609Z,22.02
2018-05-18T12:33:32.347Z,15.10
2018-05-18T12:36:43.285Z,17.62
2018-05-18T12:39:53.065Z,16.10
2018-05-18T12:43:03.747Z,18.55
2018-05-18T12:46:13.517Z,11.43
2018-05-18T12:49:24.085Z,26.80
2018-05-18T12:52:34.341Z,15.13
2018-05-18T12:55:44.491Z,16.60
2018-05-18T12:58:54.357Z,14.43
2018-05-18T13:02:04.260Z,13.85
2018-05-18T13:05:14.825Z,22.60
2018-05-18T13:08:26.078Z,16.42
2018-05-18T13:11:36.755Z,13.27
2018-05-18T13:14:46.760Z,17.98
2018-05-18T13:17:56.643Z,17.17
2018-05-18T13:21:06.833Z,17.75
2018-05-18T13:24:16.766Z,15.75
2018-05-18T13:27:27.077Z,16.00
2018-05-18T13:30:37.646Z,20.02
2018-05-18T13:33:48.016Z,24.67
2018-05-18T13:36:58.345Z,16.80
2018-05-18T13:40:08.531Z,15.43
2018-05-18T13:43:18.901Z,18.77
2018-05-18T13:46:29.841Z,18.83
2018-05-18T13:49:39.755Z,17.50
2018-05-18T13:52:49.756Z,9.98
2018-05-18T13:55:59.572Z,13.73
2018-05-18T13:59:09.377Z,21.40
2018-05-18T14:02:21.657Z,31.40
2018-05-18T14:05:33.289Z,20.65
2018-05-18T14:08:43.935Z,17.33
2018-05-18T14:11:54.410Z,16.15
2018-05-18T14:15:05.258Z,24.85
2018-05-18T14:18:15.870Z,14.73
2018-05-18T14:21:26.123Z,20.20
2018-05-18T14:24:36.304Z,13.02
2018-05-18T14:27:46.759Z,18.00
2018-05-18T14:30:57.263Z,15.13
2018-05-18T14:34:07.304Z,14.70
2018-05-18T14:37:17.407Z,29.40
2018-05-18T14:40:28.324Z,18.83
2018-05-18T14:43:38.125Z,13.48
2018-05-18T14:46:47.943Z,20.40
2018-05-18T14:49:58.361Z,15.52
2018-05-18T14:53:09.716Z,17.10
2018-05-18T14:56:20.011Z,20.37
2018-05-18T14:59:29.822Z,12.10
2018-05-18T15:02:39.736Z,23.70
2018-05-18T15:05:50.463Z,30.00
2018-05-18T15:09:00.658Z,25.95
2018-05-18T15:12:11.249Z,14.07
2018-05-18T15:15:21.137Z,18.70
2018-05-18T15:18:31.905Z,19.12
2018-05-18T15:21:41.927Z,19.83
2018-05-18T15:24:51.684Z,18.90
2018-05-18T15:28:01.685Z,21.75
2018-05-18T15:31:11.484Z,17.33
2018-05-18T15:34:21.676Z,20.62
2018-05-18T15:37:31.497Z,20.58
2018-05-18T15:40:41.528Z,21.27
2018-05-18T15:43:51.414Z,17.98
2018-05-18T15:47:01.430Z,18.83
2018-05-18T15:50:11.518Z,22.60
2018-05-18T15:53:22.025Z,14.70
2018-05-18T15:56:32.118Z,21.70
2018-05-18T15:59:41.950Z,27.30
2018-05-18T16:02:53.979Z,19.60
2018-05-18T16:06:05.119Z,18.02
2018-05-18T16:09:15.925Z,17.08
2018-05-18T16:12:26.521Z,21.37
2018-05-18T16:15:37.070Z,18.02
2018-05-18T16:18:47.204Z,17.40
2018-05-18T16:21:57.061Z,21.83
2018-05-18T16:25:07.632Z,20.02
2018-05-18T16:28:18.017Z,16.25
2018-05-18T16:31:29.028Z,15.52
2018-05-18T16:34:38.845Z,16.58
2018-05-18T16:37:49.577Z,26.70
2018-05-18T16:40:59.410Z,25.65
2018-05-18T16:44:09.602Z,14.93
2018-05-18T16:47:19.456Z,23.45
2018-05-18T16:50:29.927Z,19.50
2018-05-18T16:53:39.757Z,25.37
2018-05-18T16:56:49.950Z,18.60
2018-05-18T17:00:00.223Z,18.83
2018-05-18T17:03:10.380Z,27.02
2018-05-18T17:06:20.054Z,15.15
2018-05-18T17:09:30.158Z,19.60
2018-05-18T17:12:41.476Z,14.10
2018-05-18T17:15:52.287Z,26.75
2018-05-18T17:19:02.555Z,24.30
2018-05-18T17:22:13.442Z,30.15
2018-05-18T17:25:24.307Z,22.35
2018-05-18T17:28:34.385Z,26.73
2018-05-18T17:31:44.309Z,21.77
2018-05-18T17:34:54.280Z,19.95
2018-05-18T17:38:04.054Z,28.55
2018-05-18T17:41:13.969Z,22.25
2018-05-18T17:44:24.021Z,17.80
2018-05-18T17:47:34.325Z,19.67
2018-05-18T17:50:44.369Z,23.30
2018-05-18T17:53:54.165Z,21.30
2018-05-18T17:57:04.998Z,35.40
2018-05-18T18:00:15.507Z,20.83
2018-05-18T18:03:26.151Z,25.58
2018-05-18T18:06:36.719Z,20.50
2018-05-18T18:09:46.836Z,17.60
2018-05-18T18:12:56.768Z,27.08
2018-05-18T18:16:06.708Z,18.62
2018-05-18T18:19:17.428Z,23.23
2018-05-18T18:22:28.023Z,20.60
2018-05-18T18:25:38.923Z,24.20
2018-05-18T18:28:49.564Z,20.25
2018-05-18T18:32:00.478Z,24.17
2018-05-18T18:35:10.426Z,36.67
2018-05-18T18:38:20.336Z,21.42
2018-05-18T18:41:30.345Z,26.90
2018-05-18T18:44:40.535Z,23.23
2018-05-18T18:47:50.600Z,29.27
2018-05-18T18:51:00.411Z,20.85
2018-05-18T18:54:10.326Z,19.60
2018-05-18T18:57:20.227Z,21.75
2018-05-18T19:00:31.018Z,20.62
2018-05-18T19:03:41.751Z,25.05
2018-05-18T19:06:51.236Z,27.90
2018-05-18T19:10:01.601Z,25.55
2018-05-18T19:13:12.335Z,24.87
2018-05-18T19:16:22.706Z,26.87
2018-05-18T19:19:33.008Z,38.03
2018-05-18T19:22:43.448Z,26.10
2018-05-18T19:25:53.739Z,27.60
2018-05-18T19:29:04.223Z,23.50
2018-05-18T19:32:14.384Z,26.50
2018-05-18T19:35:24.753Z,20.55
2018-05-18T19:38:34.851Z,19.00
2018-05-18T19:41:44.910Z,23.40
2018-05-18T19:44:55.064Z,22.15
2018-05-18T19:48:05.182Z,19.35
2018-05-18T19:51:15.765Z,23.98
2018-05-18T19:54:25.847Z,44.28
2018-05-18T19:57:35.707Z,20.50
2018-05-18T20:00:46.383Z,20.45
2018-05-18T20:03:57.083Z,21.83
2018-05-18T20:07:06.896Z,18.77
2018-05-18T20:10:17.732Z,23.25
2018-05-18T20:13:27.977Z,30.65
2018-05-18T20:16:38.047Z,21.83
2018-05-18T20:19:49.004Z,27.48
2018-05-18T20:22:59.582Z,31.92
2018-05-18T20:26:09.433Z,24.73
2018-05-18T20:29:19.237Z,19.15
2018-05-18T20:32:29.308Z,22.37
2018-05-18T20:35:40.084Z,29.40
2018-05-18T20:38:50.351Z,27.83
2018-05-18T20:42:00.298Z,32.63
2018-05-18T20:45:10.179Z,27.92
2018-05-18T20:48:21.057Z,18.83
2018-05-18T20:51:30.856Z,35.33
2018-05-18T20:54:41.449Z,36.95
2018-05-18T20:57:52.266Z,22.13
2018-05-18T21:01:02.250Z,23.02
2018-05-18T21:04:11.873Z,33.17
2018-05-18T21:07:21.951Z,24.80
2018-05-18T21:10:33.156Z,23.67
2018-05-18T21:13:43.723Z,25.85
2018-05-18T21:16:54.173Z,24.35
2018-05-18T21:20:04.463Z,35.30
2018-05-18T21:23:14.668Z,33.83
2018-05-18T21:26:25.248Z,30.00
2018-05-18T21:29:35.673Z,25.80
2018-05-18T21:32:45.734Z,40.38
2018-05-18T21:35:55.970Z,29.40
2018-05-18T21:39:07.354Z,29.65
2018-05-18T21:42:18.024Z,33.42
2018-05-18T21:45:28.516Z,32.80
2018-05-18T21:48:39.696Z,36.03
2018-05-18T21:51:49.647Z,29.27
2018-05-18T21:54:59.664Z,38.67
2018-05-18T21:58:10.318Z,33.65
2018-05-18T22:01:20.443Z,38.30
2018-05-18T22:04:31.043Z,35.60
2018-05-18T22:07:41.107Z,40.12
2018-05-18T22:10:51.229Z,33.20
2018-05-18T22:14:01.010Z,31.75
2018-05-18T22:17:10.980Z,28.23
2018-05-18T22:20:20.875Z,33.38
2018-05-18T22:23:30.750Z,33.85
2018-05-18T22:26:42.248Z,38.00
2018-05-18T22:29:52.184Z,40.45
2018-05-18T22:33:02.013Z,39.35
2018-05-18T22:36:11.865Z,34.80
2018-05-18T22:39:21.666Z,44.90
2018-05-18T22:42:32.345Z,45.85
2018-05-18T22:45:42.305Z,56.53
2018-05-18T22:48:53.089Z,47.35
2018-05-18T22:52:03.532Z,38.28
2018-05-18T22:55:13.992Z,37.58
2018-05-18T22:58:23.882Z,34.88
2018-05-18T23:01:33.833Z,40.47
2018-05-18T23:04:43.728Z,35.65
2018-05-18T23:07:53.700Z,40.78
2018-05-18T23:11:03.682Z,33.10
2018-05-18T23:14:15.192Z,47.25
2018-05-18T23:17:25.473Z,35.03
2018-05-18T23:20:35.345Z,37.17
2018-05-18T23:23:45.296Z,39.40
2018-05-18T23:26:55.928Z,50.12
2018-05-18T23:30:05.723Z,42.33
2018-05-18T23:33:16.401Z,41.20
2018-05-18T23:36:26.384Z,48.08
2018-05-18T23:39:36.245Z,41.53
2018-05-18T23:42:46.809Z,47.33
2018-05-18T23:45:57.017Z,50.88
2018-05-18T23:49:07.006Z,34.83
2018-05-18T23:52:17.564Z,47.15
2018-05-18T23:55:27.790Z,33.42
2018-05-18T23:58:37.760Z,55.63
